Time;durP1;ratioP1;P1;durP2;ratioP2;P2;SDS_P1;SDS_P2;PMS_P1;PMS_P2;Temp;Humidity;BMP_temperature;BMP_pressure;BME280_temperature;BME280_humidity;BME280_pressure;Samples;Min_cycle;Max_cycle;Signal;HPM_P1;HPM_P2
2022/06/05 00:01:19;;;;;;;3.02;2.15;;;;;;;26.52;41.68;101505.98;1722739;83;21510;-50
2022/06/05 00:04:06;;;;;;;1.37;1.27;;;;;;;26.52;41.91;101510.50;1720830;83;21034;-49
2022/06/05 00:07:04;;;;;;;2.77;1.22;;;;;;;26.51;42.25;101508.78;1656591;84;21057;-51
2022/06/05 00:09:54;;;;;;;1.22;1.05;;;;;;;26.51;42.23;101506.11;1666641;86;21534;-49
2022/06/05 00:12:30;;;;;;;3.67;1.27;;;;;;;26.50;42.32;101504.43;1650900;86;21530;-51
2022/06/05 00:14:59;;;;;;;1.45;1.27;;;;;;;26.47;42.49;101512.66;1642677;86;21069;-49
2022/06/05 00:17:26;;;;;;;1.15;0.90;;;;;;;26.45;42.70;101510.11;1668681;85;21093;-50
2022/06/05 00:19:53;;;;;;;1.10;1.00;;;;;;;26.45;42.78;101514.59;1672202;85;21679;-50
2022/06/05 00:22:20;;;;;;;1.70;1.00;;;;;;;26.44;42.88;101507.57;1671332;85;21057;-51
2022/06/05 00:24:47;;;;;;;2.60;0.93;;;;;;;26.40;43.05;101510.92;1669443;85;21058;-49
2022/06/05 00:27:55;;;;;;;1.27;1.00;;;;;;;26.37;43.14;101505.84;1669162;85;21054;-52
2022/06/05 00:30:43;;;;;;;0.80;0.80;;;;;;;26.35;43.24;101505.11;1674808;85;21058;-51
2022/06/05 00:33:31;;;;;;;0.80;0.80;;;;;;;26.34;43.33;101494.53;1644578;86;21081;-49
2022/06/05 00:36:07;;;;;;;0.75;0.72;;;;;;;26.33;43.31;101494.17;1590357;90;21121;-50
2022/06/05 00:38:43;;;;;;;1.20;0.80;;;;;;;26.33;43.37;101499.52;1590236;90;21070;-51
2022/06/05 00:41:30;;;;;;;1.30;0.93;;;;;;;26.32;43.34;101490.65;1530334;93;21164;-49
2022/06/05 00:43:59;;;;;;;0.70;0.70;;;;;;;26.33;43.53;101486.17;1473951;97;21125;-51
2022/06/05 00:46:26;;;;;;;2.20;0.90;;;;;;;26.31;43.77;101482.77;1492651;96;21105;-49
2022/06/05 00:48:54;;;;;;;1.72;1.00;;;;;;;26.30;44.12;101482.38;1492615;96;21093;-53
2022/06/05 00:51:21;;;;;;;4.45;1.00;;;;;;;26.29;44.36;101483.37;1474852;96;21645;-50
2022/06/05 00:53:50;;;;;;;1.00;0.90;;;;;;;26.27;44.46;101481.30;1492963;96;21081;-49
2022/06/05 00:56:17;;;;;;;0.80;0.80;;;;;;;26.26;44.51;101474.25;1492621;96;21155;-52
2022/06/05 00:58:44;;;;;;;2.10;0.62;;;;;;;26.26;44.55;101474.25;1493013;96;21113;-49
2022/06/05 01:01:11;;;;;;;1.62;0.80;;;;;;;26.21;44.71;101460.42;1492625;96;21085;-48
2022/06/05 01:03:38;;;;;;;0.95;0.80;;;;;;;26.26;44.79;101464.91;1492844;96;21089;-50
2022/06/05 01:06:05;;;;;;;2.25;0.90;;;;;;;26.29;44.82;101463.36;1492836;96;21062;-50
2022/06/05 01:08:34;;;;;;;1.10;1.00;;;;;;;26.15;45.25;101464.89;1492515;96;21050;-50
2022/06/05 01:11:21;;;;;;;3.25;1.07;;;;;;;26.09;45.52;101468.02;1520934;93;21045;-48
2022/06/05 01:14:09;;;;;;;1.05;0.70;;;;;;;26.09;45.55;101465.35;1539567;90;21113;-50
2022/06/05 01:16:47;;;;;;;1.30;1.00;;;;;;;26.19;45.43;101455.69;1555534;90;21191;-49
2022/06/05 01:19:50;;;;;;;2.12;0.90;;;;;;;26.17;45.58;101461.63;1552597;90;21066;-52
2022/06/05 01:22:34;;;;;;;3.12;1.52;;;;;;;26.29;45.45;101461.55;1617066;88;21591;-52
2022/06/05 01:25:30;;;;;;;3.25;1.20;;;;;;;26.30;45.59;101447.22;1611542;88;21545;-51
2022/06/05 01:28:00;;;;;;;3.70;0.90;;;;;;;26.29;45.72;101442.02;1618773;88;21109;-51
2022/06/05 01:30:28;;;;;;;1.20;1.10;;;;;;;26.23;46.04;101446.48;1657568;85;21045;-50
2022/06/05 01:33:07;;;;;;;2.15;1.12;;;;;;;26.23;46.16;101442.48;1692150;85;21042;-50
2022/06/05 01:35:45;;;;;;;1.05;1.00;;;;;;;26.24;46.31;101443.69;1691913;85;21077;-50
2022/06/05 01:38:20;;;;;;;4.42;1.10;;;;;;;26.25;46.47;101445.88;1747150;81;21023;-53
2022/06/05 01:40:52;;;;;;;1.20;1.10;;;;;;;26.24;46.67;101449.50;1765972;80;21047;-50
2022/06/05 01:43:23;;;;;;;2.22;1.30;;;;;;;26.23;46.82;101438.48;1763432;80;21049;-50
2022/06/05 01:45:59;;;;;;;1.92;1.25;;;;;;;26.25;46.99;101446.74;1764064;80;21001;-50
2022/06/05 01:48:33;;;;;;;1.95;1.75;;;;;;;26.26;46.93;101441.75;1749686;81;21081;-51
2022/06/05 01:51:06;;;;;;;2.95;1.65;;;;;;;26.28;46.97;101437.63;1651993;87;21089;-49
2022/06/05 01:53:41;;;;;;;4.12;1.40;;;;;;;26.27;47.05;101441.28;1652178;86;21573;-50
2022/06/05 01:56:18;;;;;;;1.70;1.60;;;;;;;26.28;47.15;101440.30;1652138;86;21038;-49
2022/06/05 01:58:50;;;;;;;2.90;1.65;;;;;;;26.27;47.25;101437.28;1652169;86;21034;-52
2022/06/05 02:01:23;;;;;;;3.55;1.47;;;;;;;26.26;47.37;101432.89;1607718;88;21061;-50
2022/06/05 02:04:01;;;;;;;3.10;1.50;;;;;;;26.27;47.44;101433.28;1607738;89;21119;-51
2022/06/05 02:06:36;;;;;;;3.65;1.60;;;;;;;26.28;47.53;101433.63;1576549;90;21082;-51
2022/06/05 02:09:07;;;;;;;1.50;1.40;;;;;;;26.28;47.71;101432.30;1579293;90;21100;-51
2022/06/05 02:11:34;;;;;;;2.30;1.72;;;;;;;26.31;47.76;101429.41;1572947;90;21653;-51
2022/06/05 02:14:05;;;;;;;3.55;2.10;;;;;;;26.32;47.84;101428.42;1577156;90;21111;-51
2022/06/05 02:16:32;;;;;;;2.10;1.82;;;;;;;26.34;47.90;101427.81;1565536;90;21696;-49
2022/06/05 02:19:04;;;;;;;3.27;1.92;;;;;;;26.33;47.94;101422.12;1561006;91;21030;-49
2022/06/05 02:21:33;;;;;;;2.85;2.12;;;;;;;26.32;48.15;101424.41;1556203;92;21601;-49
2022/06/05 02:24:00;;;;;;;3.47;2.35;;;;;;;26.32;48.28;101420.42;1560641;92;21129;-49
2022/06/05 02:26:27;;;;;;;4.72;2.08;;;;;;;26.32;48.45;101423.08;1540661;92;21149;-51
2022/06/05 02:28:54;;;;;;;2.42;2.00;;;;;;;26.31;48.54;101424.07;1587682;90;21111;-48
2022/06/05 02:31:42;;;;;;;2.50;2.30;;;;;;;26.31;48.61;101428.07;1599804;90;21159;-50
2022/06/05 02:34:35;;;;;;;2.83;2.40;;;;;;;26.32;48.67;101431.09;1598497;90;21606;-50
2022/06/05 02:37:18;;;;;;;2.42;2.20;;;;;;;26.33;48.79;101436.81;1592759;90;21497;-50
2022/06/05 02:39:51;;;;;;;4.33;2.40;;;;;;;26.33;48.91;101440.33;1599352;90;21115;-49
2022/06/05 02:42:37;;;;;;;3.70;2.30;;;;;;;26.34;48.94;101447.83;1566664;91;21061;-49
2022/06/05 02:45:37;;;;;;;4.90;2.40;;;;;;;26.36;49.01;101443.23;1583450;90;21092;-50
2022/06/05 02:48:34;;;;;;;2.75;2.40;;;;;;;26.36;49.06;101439.22;1596726;90;21088;-51
2022/06/05 02:51:24;;;;;;;3.05;2.72;;;;;;;26.38;49.07;101441.29;1548258;93;21163;-51
2022/06/05 02:53:55;;;;;;;3.30;2.60;;;;;;;26.36;49.25;101437.41;1518815;94;21056;-53
2022/06/05 02:56:23;;;;;;;5.12;2.98;;;;;;;26.36;49.25;101437.41;1506650;94;21831;-48
2022/06/05 02:58:50;;;;;;;2.52;2.33;;;;;;;26.37;49.34;101439.61;1516167;94;21564;-52
2022/06/05 03:04:07;;;;;;;5.15;2.50;;;;;;;26.38;49.50;101442.14;1521847;93;21149;-53
2022/06/05 03:06:35;;;;;;;4.03;2.90;;;;;;;26.40;49.54;101442.88;1535535;93;21095;-51
2022/06/05 03:09:03;;;;;;;3.87;2.87;;;;;;;26.43;49.58;101444.47;1537744;93;21493;-51
2022/06/05 03:11:30;;;;;;;4.58;2.92;;;;;;;26.43;49.71;101435.12;1538149;93;21061;-50
2022/06/05 03:13:57;;;;;;;2.45;2.25;;;;;;;26.48;49.61;101440.47;1538382;93;21089;-50
2022/06/05 03:16:28;;;;;;;4.12;3.10;;;;;;;26.51;49.50;101444.73;1552838;90;21648;-50
2022/06/05 03:18:55;;;;;;;3.12;2.62;;;;;;;26.54;49.49;101439.99;1567584;90;21076;-51
2022/06/05 03:21:23;;;;;;;4.45;2.85;;;;;;;26.58;49.37;101435.29;1572773;90;21200;-51
2022/06/05 03:23:50;;;;;;;7.17;2.90;;;;;;;26.60;49.29;101436.84;1572842;90;21096;-51
2022/06/05 03:26:17;;;;;;;5.08;2.77;;;;;;;26.63;49.29;101442.95;1580191;90;21149;-53
2022/06/05 03:28:44;;;;;;;5.65;3.05;;;;;;;26.65;49.27;101439.16;1577332;90;21084;-51
2022/06/05 03:31:11;;;;;;;4.55;3.02;;;;;;;26.67;49.30;101435.89;1567356;90;21084;-49
2022/06/05 03:33:38;;;;;;;4.25;2.92;;;;;;;26.68;49.33;101440.27;1572717;90;21088;-51
2022/06/05 03:36:12;;;;;;;4.83;3.52;;;;;;;26.68;49.38;101441.61;1572753;90;21599;-50
2022/06/05 03:38:40;;;;;;;4.08;3.12;;;;;;;26.69;49.46;101436.62;1535995;93;21088;-49
2022/06/05 03:41:08;;;;;;;6.87;3.50;;;;;;;26.72;49.50;101436.42;1537513;93;21184;-53
2022/06/05 03:43:38;;;;;;;4.53;3.50;;;;;;;26.76;49.43;101427.20;1538395;93;21593;-53
2022/06/05 03:46:07;;;;;;;4.40;3.40;;;;;;;26.82;49.26;101427.20;1573077;90;21044;-50
2022/06/05 03:48:34;;;;;;;3.75;3.35;;;;;;;26.86;49.28;101425.50;1584079;90;21056;-52
2022/06/05 03:51:18;;;;;;;4.85;3.67;;;;;;;26.97;49.23;101420.17;1586515;90;21145;-52
2022/06/05 03:53:45;;;;;;;5.72;3.45;;;;;;;27.15;48.99;101413.35;1599252;88;21093;-50
2022/06/05 03:56:17;;;;;;;4.45;3.65;;;;;;;27.44;48.07;101418.19;1634030;88;21082;-53
2022/06/05 03:58:46;;;;;;;5.08;3.35;;;;;;;27.64;47.59;101413.38;1595587;88;21035;-51
2022/06/05 04:01:14;;;;;;;3.70;3.40;;;;;;;27.81;47.47;101416.37;1590216;88;21076;-51
2022/06/05 04:03:40;;;;;;;6.12;3.72;;;;;;;28.01;46.85;101414.72;1595890;88;21112;-51
2022/06/05 04:06:08;;;;;;;4.72;4.25;;;;;;;28.16;46.54;101413.44;1593959;90;21029;-51
2022/06/05 04:08:36;;;;;;;5.15;3.80;;;;;;;28.25;46.23;101411.33;1595679;88;21010;-50
2022/06/05 04:11:11;;;;;;;4.87;4.22;;;;;;;28.29;46.08;101408.75;1595689;88;21082;-51
2022/06/05 04:13:39;;;;;;;5.22;4.37;;;;;;;28.30;45.95;101400.21;1589155;88;21014;-50
2022/06/05 04:16:12;;;;;;;6.80;4.58;;;;;;;28.30;45.66;101401.06;1597249;88;21193;-51
2022/06/05 04:18:40;;;;;;;5.70;4.42;;;;;;;28.28;45.62;101399.01;1589489;88;21105;-50
2022/06/05 04:21:12;;;;;;;5.20;4.40;;;;;;;28.25;45.74;101393.94;1596574;88;21069;-52
2022/06/05 04:23:40;;;;;;;6.35;4.87;;;;;;;28.21;45.76;101388.49;1596051;88;21098;-51
2022/06/05 04:26:11;;;;;;;5.75;4.67;;;;;;;28.18;45.83;101390.08;1595999;88;21066;-52
2022/06/05 04:28:39;;;;;;;5.42;4.33;;;;;;;28.13;45.88;101397.66;1596229;88;21094;-52
2022/06/05 04:31:22;;;;;;;6.78;4.72;;;;;;;28.08;45.95;101399.86;1604616;88;21058;-50
2022/06/05 04:33:51;;;;;;;5.85;4.67;;;;;;;28.05;46.21;101397.44;1588348;88;21118;-51
2022/06/05 04:36:18;;;;;;;4.50;3.98;;;;;;;28.01;46.34;101389.31;1691807;83;21526;-51
2022/06/05 04:38:47;;;;;;;4.58;4.17;;;;;;;27.99;46.29;101387.25;1719008;83;21007;-51
2022/06/05 04:41:14;;;;;;;5.30;4.67;;;;;;;27.98;46.38;101389.58;1703278;83;21046;-52
2022/06/05 04:43:41;;;;;;;5.55;4.95;;;;;;;27.96;46.42;101384.86;1717710;83;21057;-51
2022/06/05 04:46:08;;;;;;;8.50;4.20;;;;;;;27.95;46.48;101396.48;1718119;83;21529;-52
2022/06/05 04:48:36;;;;;;;9.35;4.75;;;;;;;27.92;46.59;101380.71;1650236;86;21011;-50
2022/06/05 04:51:06;;;;;;;5.58;4.65;;;;;;;27.90;46.60;101385.34;1717032;83;21042;-51
2022/06/05 04:53:33;;;;;;;6.87;5.40;;;;;;;27.87;46.65;101386.92;1665768;85;21028;-51
2022/06/05 04:56:08;;;;;;;6.55;4.20;;;;;;;27.81;46.78;101388.77;1672382;85;21092;-50
2022/06/05 04:58:34;;;;;;;7.40;4.80;;;;;;;27.78;46.85;101388.53;1571535;91;21066;-50
2022/06/05 05:01:01;;;;;;;4.92;4.40;;;;;;;27.73;47.05;101385.89;1572180;91;21122;-49
2022/06/05 05:03:28;;;;;;;13.93;4.83;;;;;;;27.70;47.23;101386.16;1572386;91;21138;-50
2022/06/05 05:05:55;;;;;;;4.53;4.10;;;;;;;27.67;47.38;101379.72;1572253;91;21066;-55
2022/06/05 05:08:22;;;;;;;5.60;4.08;;;;;;;27.65;47.52;101379.00;1572345;91;21078;-53
2022/06/05 05:10:49;;;;;;;5.50;3.98;;;;;;;27.63;47.69;101379.13;1572287;91;21156;-49
2022/06/05 05:13:17;;;;;;;5.25;3.87;;;;;;;27.62;47.67;101375.23;1572293;91;21094;-50
2022/06/05 05:15:49;;;;;;;5.90;4.62;;;;;;;27.61;47.72;101374.41;1534677;93;21666;-50
2022/06/05 05:18:17;;;;;;;5.20;4.40;;;;;;;27.59;47.80;101375.02;1586837;90;21135;-49
2022/06/05 05:20:44;;;;;;;4.78;4.37;;;;;;;27.60;47.76;101375.84;1589496;90;21085;-51
2022/06/05 05:23:11;;;;;;;5.67;4.80;;;;;;;27.61;47.77;101379.75;1589633;90;21605;-49
2022/06/05 05:25:38;;;;;;;5.35;4.80;;;;;;;27.61;47.72;101370.88;1589393;90;21097;-51
2022/06/05 05:28:06;;;;;;;5.75;4.53;;;;;;;27.61;47.73;101374.88;1589628;90;21045;-51
2022/06/05 05:30:34;;;;;;;5.05;4.15;;;;;;;27.63;47.84;101375.61;1589831;90;21685;-52
2022/06/05 05:33:01;;;;;;;5.35;4.83;;;;;;;27.65;47.82;101372.31;1589978;90;21565;-51
2022/06/05 05:35:28;;;;;;;5.87;4.47;;;;;;;27.67;47.51;101375.23;1589759;90;21089;-50
2022/06/05 05:37:55;;;;;;;6.60;5.08;;;;;;;27.71;47.18;101377.15;1589480;90;21126;-51
2022/06/05 05:43:07;;;;;;;5.78;5.12;;;;;;;27.82;47.29;101370.42;1589505;90;21614;-49
2022/06/05 05:45:34;;;;;;;6.62;4.95;;;;;;;27.93;46.98;101365.00;1589690;90;21118;-52
2022/06/05 05:48:02;;;;;;;5.97;4.75;;;;;;;28.00;46.66;101375.59;1589409;90;21085;-49
2022/06/05 05:50:29;;;;;;;5.15;4.55;;;;;;;28.09;46.26;101370.78;1589836;90;21125;-50
2022/06/05 05:52:56;;;;;;;4.92;4.20;;;;;;;28.11;46.37;101366.14;1568842;90;21074;-49
2022/06/05 05:55:22;;;;;;;5.22;4.67;;;;;;;28.15;46.56;101368.95;1661206;83;21507;-52
2022/06/05 05:57:50;;;;;;;6.08;4.05;;;;;;;28.22;46.85;101370.58;1785778;80;21085;-52
2022/06/05 06:00:18;;;;;;;7.00;6.30;;;;;;;28.33;46.78;101371.38;1788278;80;21017;-50
2022/06/05 06:02:45;;;;;;;5.90;5.22;;;;;;;28.54;46.44;101371.34;1792754;80;20998;-52
2022/06/05 06:05:14;;;;;;;6.78;5.87;;;;;;;28.80;45.39;101374.81;1789138;80;21022;-54
2022/06/05 06:07:42;;;;;;;5.90;5.05;;;;;;;29.12;44.33;101373.78;1782011;80;21010;-52
2022/06/05 06:10:10;;;;;;;7.15;5.15;;;;;;;29.39;43.85;101378.01;1776340;80;21034;-49
2022/06/05 06:12:37;;;;;;;7.85;5.90;;;;;;;29.64;43.59;101384.18;1778179;80;21014;-49
2022/06/05 06:15:07;;;;;;;7.12;5.80;;;;;;;29.81;42.65;101378.16;1791822;80;21010;-51
2022/06/05 06:17:34;;;;;;;6.55;5.12;;;;;;;29.95;42.09;101375.03;1770479;80;21624;-54
2022/06/05 06:20:01;;;;;;;7.05;5.30;;;;;;;30.05;41.93;101370.50;1776928;81;21027;-50
2022/06/05 06:22:28;;;;;;;6.47;4.85;;;;;;;30.08;41.74;101362.17;1762646;81;21546;-50
2022/06/05 06:24:55;;;;;;;6.65;4.25;;;;;;;30.08;41.75;101358.63;1761147;81;21027;-50
2022/06/05 06:27:22;;;;;;;6.40;4.60;;;;;;;30.05;42.13;101367.81;1761269;81;21507;-54
2022/06/05 06:29:50;;;;;;;5.40;4.05;;;;;;;30.02;42.53;101365.44;1779521;81;21062;-51
2022/06/05 06:32:17;;;;;;;6.47;4.37;;;;;;;29.98;42.77;101362.69;1779099;81;21018;-49
2022/06/05 06:34:44;;;;;;;4.75;3.77;;;;;;;29.94;42.78;101357.74;1761087;81;21015;-50
2022/06/05 06:37:10;;;;;;;6.40;4.10;;;;;;;29.89;42.69;101362.19;1775566;81;21506;-49
2022/06/05 06:39:37;;;;;;;6.08;4.22;;;;;;;29.82;42.95;101355.69;1766537;81;20976;-50
2022/06/05 06:42:05;;;;;;;4.55;3.67;;;;;;;29.76;43.06;101358.12;1764272;81;21058;-52
2022/06/05 06:44:32;;;;;;;3.90;3.45;;;;;;;29.68;43.30;101357.43;1767644;81;21061;-51
2022/06/05 06:46:59;;;;;;;4.03;3.55;;;;;;;29.60;43.48;101358.63;1775319;81;21018;-54
2022/06/05 06:49:26;;;;;;;7.42;3.83;;;;;;;29.50;43.97;101349.73;1761947;81;21015;-49
2022/06/05 06:51:53;;;;;;;4.30;3.80;;;;;;;29.41;44.27;101350.56;1762211;81;21027;-51
2022/06/05 06:54:20;;;;;;;6.65;3.83;;;;;;;29.34;44.46;101349.45;1777506;81;21027;-55
2022/06/05 06:56:47;;;;;;;7.55;4.05;;;;;;;29.27;44.67;101345.61;1770960;81;21479;-49
2022/06/05 06:59:13;;;;;;;5.00;4.10;;;;;;;29.25;44.49;101351.61;1772698;81;21011;-54
2022/06/05 07:01:40;;;;;;;5.90;4.70;;;;;;;29.23;44.82;101352.23;1761193;81;20980;-52
2022/06/05 07:04:07;;;;;;;7.42;4.53;;;;;;;29.25;44.93;101350.27;1762195;81;21522;-50
2022/06/05 07:06:36;;;;;;;5.25;4.50;;;;;;;29.32;44.94;101354.10;1762127;81;21036;-51
2022/06/05 07:09:03;;;;;;;5.45;4.95;;;;;;;29.52;44.65;101358.48;1764630;81;21042;-51
2022/06/05 07:11:30;;;;;;;5.78;4.72;;;;;;;29.74;43.48;101357.75;1772196;81;21019;-50
2022/06/05 07:13:57;;;;;;;5.58;4.85;;;;;;;29.93;43.14;101358.23;1774653;81;20997;-51
2022/06/05 07:16:26;;;;;;;5.30;4.80;;;;;;;30.06;43.02;101354.77;1765119;81;21014;-50
2022/06/05 07:18:53;;;;;;;7.72;5.28;;;;;;;30.11;42.78;101356.50;1766568;80;21058;-52
2022/06/05 07:21:22;;;;;;;5.80;4.90;;;;;;;30.17;42.49;101359.95;1766498;81;21486;-50
2022/06/05 07:23:50;;;;;;;4.80;4.30;;;;;;;30.22;42.33;101359.03;1766801;81;20999;-56
2022/06/05 07:26:19;;;;;;;5.15;4.62;;;;;;;30.27;42.48;101366.17;1766559;81;21569;-55
2022/06/05 07:28:46;;;;;;;6.22;5.30;;;;;;;30.29;42.41;101361.53;1770630;81;21492;-50
2022/06/05 07:31:14;;;;;;;6.45;5.08;;;;;;;30.29;42.26;101361.53;1766087;81;21031;-52
2022/06/05 07:33:42;;;;;;;5.25;4.78;;;;;;;30.27;42.26;101359.45;1766373;81;20971;-51
2022/06/05 07:36:13;;;;;;;5.83;5.20;;;;;;;30.25;42.01;101360.06;1767238;81;21093;-51
2022/06/05 07:38:40;;;;;;;6.15;5.53;;;;;;;30.22;42.13;101369.77;1767042;81;21046;-53
2022/06/05 07:41:18;;;;;;;7.90;6.08;;;;;;;30.19;41.94;101371.39;1766512;81;21515;-52
2022/06/05 07:43:45;;;;;;;8.03;6.58;;;;;;;30.14;42.04;101373.67;1766274;81;21510;-53
2022/06/05 07:46:12;;;;;;;8.00;6.58;;;;;;;30.09;41.84;101375.93;1770520;81;21031;-50
2022/06/05 07:48:40;;;;;;;8.78;6.87;;;;;;;30.04;41.80;101375.53;1767184;81;21031;-52
2022/06/05 07:56:44;;;;;;;12.07;7.22;;;;;;;29.79;41.55;101381.47;1707367;84;21043;-52
2022/06/05 07:59:11;;;;;;;9.10;6.53;;;;;;;29.69;42.02;101376.58;1707735;84;21054;-52
2022/06/05 08:01:40;;;;;;;7.25;6.55;;;;;;;29.63;42.48;101373.11;1701642;84;21519;-51
2022/06/05 08:04:08;;;;;;;11.78;7.70;;;;;;;29.59;42.63;101379.75;1707690;84;21059;-53
2022/06/05 08:06:37;;;;;;;9.60;7.20;;;;;;;29.55;42.83;101377.00;1707429;84;21568;-54
2022/06/05 08:09:07;;;;;;;9.18;7.65;;;;;;;29.58;42.45;101372.67;1708009;84;21051;-53
2022/06/05 08:11:35;;;;;;;8.15;6.78;;;;;;;29.54;42.38;101367.24;1707325;84;21471;-50
2022/06/05 08:14:02;;;;;;;21.60;8.60;;;;;;;29.55;42.74;101374.31;1707423;84;21072;-50
2022/06/05 08:16:28;;;;;;;9.25;7.53;;;;;;;29.56;42.67;101378.19;1707790;84;21101;-51
2022/06/05 08:18:55;;;;;;;11.28;7.95;;;;;;;29.59;42.42;101379.75;1720057;83;21586;-50
2022/06/05 08:21:22;;;;;;;11.12;7.95;;;;;;;29.57;42.26;101381.73;1647487;86;21039;-50
2022/06/05 08:23:49;;;;;;;10.20;7.55;;;;;;;29.52;42.36;101382.63;1700841;84;21122;-51
2022/06/05 08:26:16;;;;;;;12.05;7.35;;;;;;;29.42;42.60;101379.95;1642378;86;21106;-50
2022/06/05 08:28:43;;;;;;;11.50;7.67;;;;;;;29.33;42.95;101383.92;1650584;86;20999;-53
2022/06/05 08:31:10;;;;;;;11.57;7.72;;;;;;;29.28;43.09;101381.69;1694929;84;21075;-56
2022/06/05 08:33:38;;;;;;;14.65;6.92;;;;;;;29.20;43.26;101386.89;1647595;86;21120;-51
2022/06/05 08:36:06;;;;;;;7.62;6.30;;;;;;;29.09;43.51;101379.41;1700649;84;21035;-50
2022/06/05 08:41:37;;;;;;;7.42;6.35;;;;;;;28.98;44.04;101372.31;1647348;86;21086;-53
2022/06/05 08:44:30;;;;;;;9.00;6.37;;;;;;;28.90;44.34;101373.01;1694395;84;21050;-51
2022/06/05 08:47:18;;;;;;;7.03;5.90;;;;;;;28.87;44.72;101376.46;1647867;86;21487;-48
2022/06/05 08:50:00;;;;;;;7.00;5.95;;;;;;;28.86;44.40;101383.64;1701912;83;21506;-48
2022/06/05 08:52:50;;;;;;;;;;;;;;;28.87;44.19;101383.16;1667439;85;21103;-50
2022/06/05 08:55:25;;;;;;;7.10;4.57;;;;;;;28.90;43.68;101386.41;1666498;85;20112;-50
2022/06/05 08:58:19;;;;;;;5.50;4.97;;;;;;;28.94;43.18;101393.19;1640867;85;21069;-49
2022/06/05 09:00:52;;;;;;;5.35;4.33;;;;;;;28.98;42.29;101386.57;1653425;86;21082;-49
2022/06/05 09:03:33;;;;;;;5.47;4.67;;;;;;;29.03;42.12;101388.84;1632891;86;21054;-49
2022/06/05 09:06:15;;;;;;;5.20;4.70;;;;;;;29.06;42.41;101394.44;1657689;85;21197;-49
2022/06/05 09:08:42;;;;;;;;;;;;;;;29.13;42.47;101394.22;1606811;88;21072;-49
2022/06/05 09:11:53;;;;;;;4.80;3.60;;;;;;;29.18;42.20;101397.39;1608007;88;20140;-49
2022/06/05 09:14:50;;;;;;;3.60;3.30;;;;;;;29.20;41.30;101403.46;1560037;92;21066;-55
2022/06/05 09:17:19;;;;;;;5.28;3.60;;;;;;;29.20;40.35;101398.09;1547903;92;21090;-50
2022/06/05 09:19:48;;;;;;;4.97;3.62;;;;;;;29.15;40.06;101403.01;1549288;92;21070;-49
2022/06/05 09:22:39;;;;;;;4.58;4.17;;;;;;;29.08;40.57;101400.50;1544245;92;21054;-49
2022/06/05 09:25:21;;;;;;;6.62;4.40;;;;;;;29.02;41.19;101403.73;1509489;94;21656;-54
2022/06/05 09:28:44;;;;;;;7.10;4.95;;;;;;;28.98;41.33;101399.97;1502427;95;21140;-53
2022/06/05 09:31:36;;;;;;;8.55;5.42;;;;;;;28.93;41.41;101396.83;1500581;95;21123;-52
2022/06/05 09:34:11;;;;;;;7.80;6.33;;;;;;;28.90;41.80;101397.13;1503760;95;21066;-52
2022/06/05 09:36:37;;;;;;;8.75;6.40;;;;;;;28.91;42.96;101402.82;1510085;94;21109;-53
2022/06/05 09:39:30;;;;;;;9.78;6.10;;;;;;;28.91;43.56;101404.67;1512192;94;21138;-49
2022/06/05 09:42:36;;;;;;;10.03;5.97;;;;;;;28.89;43.62;101398.09;1510574;94;21135;-48
2022/06/05 09:45:27;;;;;;;8.10;6.28;;;;;;;28.86;43.53;101393.02;1510899;94;21627;-52
2022/06/05 09:48:35;;;;;;;7.15;6.08;;;;;;;28.79;43.78;101391.84;1440851;98;21190;-51
2022/06/05 09:51:08;;;;;;;9.23;6.33;;;;;;;28.73;44.31;101396.41;1486574;95;21095;-53
2022/06/05 09:53:43;;;;;;;8.33;6.95;;;;;;;28.70;44.96;101401.19;1510121;94;21128;-51
2022/06/05 09:58:24;;;;;;;8.03;6.70;;;;;;;28.62;45.13;101404.55;1490083;95;21088;-55
2022/06/05 09:59:18;;;;;;;8.25;6.30;;;;;;;28.57;45.42;101410.78;1537834;92;21109;-52
2022/06/05 10:01:52;;;;;;;7.10;6.40;;;;;;;28.51;45.75;101410.42;1539852;92;21594;-50
2022/06/05 10:04:21;;;;;;;7.22;6.15;;;;;;;28.44;46.02;101416.79;1539698;92;21213;-50
2022/06/05 10:06:55;;;;;;;8.03;6.50;;;;;;;28.41;46.35;101419.74;1572421;90;21094;-52
2022/06/05 10:09:26;;;;;;;7.03;6.42;;;;;;;28.39;46.32;101417.69;1574602;90;21098;-49
2022/06/05 10:12:01;;;;;;;6.30;5.70;;;;;;;28.39;46.28;101406.98;1572311;88;21057;-51
2022/06/05 10:14:51;;;;;;;6.03;5.47;;;;;;;28.39;45.97;101406.98;1602962;89;21077;-51
2022/06/05 10:17:53;;;;;;;6.47;5.87;;;;;;;28.39;46.00;101411.00;1602988;89;21066;-51
2022/06/05 10:20:54;;;;;;;7.10;5.12;;;;;;;28.39;45.98;101412.34;1608486;88;21097;-49
2022/06/05 10:23:47;;;;;;;6.03;5.40;;;;;;;28.38;46.21;101412.48;1608463;88;21109;-50
2022/06/05 10:26:33;;;;;;;11.93;5.97;;;;;;;28.34;46.98;101414.55;1630094;86;21057;-51
2022/06/05 10:29:26;;;;;;;6.42;5.80;;;;;;;28.31;47.59;101417.50;1637946;86;21061;-51
2022/06/05 10:32:03;;;;;;;8.10;5.67;;;;;;;28.27;47.87;101420.08;1588351;89;21071;-51
2022/06/05 10:35:05;;;;;;;9.20;6.10;;;;;;;28.24;48.14;101421.66;1581146;90;21143;-50
2022/06/05 10:37:57;;;;;;;7.70;5.70;;;;;;;28.20;48.15;101418.89;1584941;90;21080;-49
2022/06/05 10:40:49;;;;;;;6.80;5.50;;;;;;;28.18;48.59;101425.72;1562530;91;21146;-52
2022/06/05 10:43:25;;;;;;;7.65;6.30;;;;;;;28.15;49.78;101423.80;1563294;91;21046;-49
2022/06/05 10:46:00;;;;;;;6.55;5.92;;;;;;;28.15;50.03;101418.45;1567050;91;21411;-47
2022/06/05 10:49:14;;;;;;;7.30;6.28;;;;;;;28.11;50.50;101415.64;1523160;94;21131;-50
2022/06/05 10:51:55;;;;;;;9.25;6.92;;;;;;;28.10;50.84;101419.31;1541826;91;21126;-48
2022/06/05 10:54:47;;;;;;;9.45;6.50;;;;;;;28.09;51.01;101398.87;1524203;94;21074;-49
2022/06/05 10:57:22;;;;;;;7.87;6.60;;;;;;;28.05;50.85;101389.41;1511232;94;21036;-51
2022/06/05 11:00:06;;;;;;;7.75;6.83;;;;;;;28.05;50.47;101376.89;1516462;94;21101;-50
2022/06/05 11:03:04;;;;;;;7.70;6.30;;;;;;;28.01;50.38;101377.27;1485798;96;21119;-50
2022/06/05 11:06:14;;;;;;;6.35;5.50;;;;;;;27.98;50.47;101369.52;1476429;97;21110;-53
2022/06/05 11:09:00;;;;;;;5.62;4.75;;;;;;;27.97;50.09;101363.80;1472037;97;21102;-51
2022/06/05 11:14:41;;;;;;;6.10;5.47;;;;;;;27.97;49.07;101357.11;1471827;97;21157;-49
2022/06/05 11:17:23;;;;;;;7.35;6.20;;;;;;;28.03;49.35;101353.91;1476161;96;21117;-52
2022/06/05 11:20:13;;;;;;;6.67;5.92;;;;;;;28.11;50.13;101358.11;1467876;97;21695;-52
2022/06/05 11:23:06;;;;;;;10.93;6.47;;;;;;;28.19;50.83;101365.85;1491708;96;21206;-49
2022/06/05 11:25:50;;;;;;;8.35;5.90;;;;;;;28.29;50.57;101368.61;1455695;97;21152;-52
2022/06/05 11:29:01;;;;;;;5.75;4.90;;;;;;;28.38;49.96;101373.66;1480366;95;21113;-53
2022/06/05 11:31:42;;;;;;;6.58;5.53;;;;;;;28.45;48.10;101379.69;1532338;92;21138;-51
2022/06/05 11:34:54;;;;;;;5.83;4.75;;;;;;;28.51;47.01;101373.80;1514555;94;21125;-50
2022/06/05 11:37:56;;;;;;;6.42;4.72;;;;;;;28.58;47.25;101386.20;1512241;94;21140;-51
2022/06/05 11:40:53;;;;;;;7.08;5.70;;;;;;;28.62;44.55;101386.28;1440976;99;21178;-52
2022/06/05 11:43:36;;;;;;;8.45;6.80;;;;;;;28.65;45.37;101388.20;1446342;98;21117;-52
2022/06/05 11:46:17;;;;;;;9.33;6.10;;;;;;;28.71;46.83;101388.14;1535273;92;21571;-51
2022/06/05 11:49:05;;;;;;;7.15;6.20;;;;;;;28.76;47.57;101382.76;1446238;99;21117;-52
2022/06/05 11:52:01;;;;;;;7.80;5.30;;;;;;;28.82;48.08;101382.22;1446694;99;21117;-52
2022/06/05 11:54:42;;;;;;;7.33;4.95;;;;;;;28.87;47.54;101393.36;1432402;99;21121;-51
2022/06/05 11:57:24;;;;;;;;;;;;;;;28.89;47.33;101387.38;1446118;98;21088;-51
2022/06/05 12:00:02;;;;;;;6.92;4.92;;;;;;;28.90;46.40;101386.41;1454165;98;20461;-50
2022/06/05 12:02:36;;;;;;;9.80;5.00;;;;;;;28.91;46.04;101389.42;1498690;95;21119;-49
2022/06/05 12:05:24;;;;;;;8.75;4.72;;;;;;;28.94;45.35;101386.97;1501419;95;21073;-51
2022/06/05 12:07:51;;;;;;;7.15;4.40;;;;;;;28.94;44.80;101389.66;1476130;96;21153;-50
2022/06/05 12:10:23;;;;;;;7.90;5.33;;;;;;;28.93;44.46;101388.80;1480327;96;21120;-51
2022/06/05 12:13:17;;;;;;;7.65;4.58;;;;;;;28.91;44.34;101393.44;1413545;100;21087;-50
2022/06/05 12:15:53;;;;;;;5.53;4.55;;;;;;;28.89;44.18;101388.71;1428821;99;21184;-50
2022/06/05 12:19:17;;;;;;;5.55;4.62;;;;;;;28.87;44.26;101392.02;1449922;98;21647;-50